Aeroporto :
LOGIN :

Iscrizione | Disclaimer

   EN    FR    IT 

 










Sommario :    VFR   VFR Marginale   IFR   IFR Intensivo   IFR Molto Intensivo
Visibilità : 
Base nubi : 
>= 8 km
>= 3000ft
5 / 8 km
1000 / 3000 ft
1500m / 5 km
500 / 1000 ft
800 / 1500m
200 / 500 ft
< 800m
< 200 ft
Simboli :   Temporali  Nebbia  Neve Forte  Precipitazioni Forti  Vento > 20 kt
SIGMETs :   Varie  Temporali  Ghiacco  Turbolenza  Onda orograficha  Ceneri Vulcaniche






- Altitudine del aeroporto : 83 ft
- Codice IATA : LHR


EGLL - London Heathrow

ULTIMO METAR :
  • 251650Z AUTO 34004KT 300V030 9999 BKN036 09/06 Q1015 NOSIG

METARs OBSOLETI :
  • 251620Z AUTO 33005KT 300V010 9999 FEW014 BKN035 09/06 Q1015 NOSIG
  • 251550Z AUTO 32006KT 280V350 9999 BKN020 OVC033 09/07 Q1014 NOSIG
  • 251520Z AUTO 32005KT 290V360 9999 SCT011 BKN017 BKN031 10/07 Q1014 NOSIG
  • 251450Z AUTO 31009KT 9999 BKN010 OVC029 10/08 Q1013 TEMPO BKN008
  • 251420Z AUTO 30009KT 9999 BKN008 OVC012 10/08 Q1013 TEMPO SCT008

TAF AMD TAF EGLL
Valido dal 25 a 12 ore il 26 a 18 ore UTC


251212Z 2512/2618 20010KT 9999 SCT015
TEMPO 2512/2516 7000 -RADZ BKN010
PROB30
TEMPO 2512/2515 4000 RADZ BKN006
BECMG 2513/2516 33006KT
BECMG 2601/2604 7000
PROB40
TEMPO 2603/2610 3000 BR
BECMG 2610/2613 9999



MetMap, La meteo Aeronautica in un colpo d'occhio ! - Copyright ORBIFLY Dicembre 2007 - Disclaimer

ORBIFLY MET'MAP TEAM :

Programmazione e sviluppo : Alexandra Zaïnal
Concezione : Baudouin d'Aumeries
Aiuto per la programmazione : Marc-Olivier Méhu
Supporto tecnico e logistico : Manuel Goepfert
Aiuto per la traduzione : Arnaldo La Scala

Contatto : metmap@orbifly.com




FONTI E CREDITI :

   NOAA